Northeast Philadelphia, PA

12:33 PM EST on November 17, 2017 (GMT -0500)
Northeast Philadelphia | | Change Station

Elev 118 ft 40.08 °N, 75.01 °W | Updated 39 minutes ago

Clear
Clear
50 °F
Feels Like 50 °F
N
14
Wind Variable Wind from NW
Gusts 23 mph

Today
High -- | Low -- °F
--% Chance of Precip.
Yesterday
High -- | Low -- °F
Precip. -- in
Pressure 30.14 in
Visibility 10.0 miles
Clouds Clear
Dew Point 24 °F
Humidity 36%
Rainfall 0.00 in
Snow Depth Not available.
6:47 AM 4:41 PM
Waning Crescent, 1% visible
METAR KPNE 171654Z 31012G20KT 10SM CLR 10/M04 A3014 RMK AO2 SLP206 T01001044
Pressure 30.14 in
Visibility 10.0 miles
Clouds Clear
Dew Point 24 °F
Humidity 36%
Rainfall 0.00 in
Snow Depth Not available.
6:47 AM 4:41 PM
Waning Crescent, 1% visible
METAR KPNE 171654Z 31012G20KT 10SM CLR 10/M04 A3014 RMK AO2 SLP206 T01001044

Get Severe Weather Alerts

Thanks for signing up!

Be on the lookout for a verification email in your inbox.

You'll start receiving the daily forecast at 6 AM.

×

10-Day Weather Forecast

Almanac

Astronomy

Nov. 17, 2017 Rise Set
Actual Time
Civil Twilight
Nautical Twilight
Astronomical Twilight
Moon
Length of Visible Light
Length of Day
Tomorrow will be .
, % of the Moon is Illuminated

Today's Extremes

State Highs State Lows

Community

WunderPhotos

Category 6

Welcome to Category 6. This is the collective home for Weather Underground's featured writeups by Dr. Jeff Masters (right), Bob Henson (left), Chris Burt, and other regular contributors.

Nearby

Air Quality

  Air Quality AQ Index Pollutant
Not available.

Snow Depth

Station Depth Elevation

Earthquake Activity

City Distance Mag. Time & Date
Minimum magnitude displayed is 2.5.

Coastal Water Temperatures

Place Temperature

Stations

Nearby Weather Stations

Station Location Temp. Windchill Dew Point Humidity Wind Precip. Elev Updated Type
                   

Watches & Warnings

There are currently no watches in effect.